Hannover, Germany

7:15 AM CEST on August 28, 2016 (GMT +0200)
Walsroder Straße | | Change Station

Elev 167 ft 52.46 °N, 9.74 °E | Updated 4 minutes ago

Mostly Cloudy
Mostly Cloudy
65.5 °F
Feels Like 65.5 °F
N
0.0
Wind Variable Wind from North
Gusts 0.6 mph

Today
High -- | Low -- °F
--% Chance of Precip.
Yesterday
High -- | Low -- °F
Precip. -- in
Pressure 29.92 in
Visibility 6.2 miles
Clouds Few 8000 ft
Scattered Clouds 13000 ft
Mostly Cloudy 22000 ft
Dew Point 61 °F
Humidity 86%
Rainfall 0.00 in
Snow Depth Not available.
6:26 AM 8:17 PM
Waning Crescent, 18% visible
METAR EDDV 280450Z 08003KT 9999 FEW080CB SCT130 BKN220 19/16 Q1013 NOSIG
Pressure 29.92 in
Visibility 6.2 miles
Clouds Few 8000 ft
Scattered Clouds 13000 ft
Mostly Cloudy 22000 ft
Dew Point 61 °F
Humidity 86%
Rainfall 0.00 in
Snow Depth Not available.
6:26 AM 8:17 PM
Waning Crescent, 18% visible
METAR EDDV 280450Z 08003KT 9999 FEW080CB SCT130 BKN220 19/16 Q1013 NOSIG

10-Day Weather Forecast

×

Almanac

Astronomy

Aug. 28, 2016 Rise Set
Actual Time
Civil Twilight
Nautical Twilight
Astronomical Twilight
Moon
Length of Visible Light
Length of Day
Tomorrow will be .
, % of the Moon is Illuminated

Today's Extremes

Country Highs Country Lows

Community

WunderPhotos

Upload Photos

1,935,531 photos uploaded!

WunderBlog® & News

Nearby

Air Quality

  Air Quality AQ Index Pollutant
Not available.

Snow Depth

Station Depth Elevation

Earthquake Activity

City Distance Mag. Time & Date
Minimum magnitude displayed is 2.5.

Coastal Water Temperatures

Place Temperature

Stations

Nearby Weather Stations

Station Location Temp. Windchill Dew Point Humidity Wind Precip. Elev Updated Type